Chester Depot, Vermont
Current Conditions -  °F | °C
As of 11:54 AM on Friday 24 Oct 2014 (Local Time) from KVSF Reporting Station
Overcast Overcast  
Wind Chill: 43°   Ceiling: 2200
Heat Index: 47°   Visibility: 10mi
Dew Point: 41°   Wind: 8mph
Humidity: 80%   Direction: 290°WNW
Pressure: 29.78"   Gusts: NA
Location:  43.36°N, 72.57°W
Report Text: KVSF 241554Z AUTO 29007KT 10SM OVC022 08/05 A2978 RMK AO2 SLP089 T00830050
Loading
Personal Weather Stations






























Interactive Weather Map
Tropical Storm Tracking
New forecast layout! Learn more

10-Day Weather Forecast

Advertisements
Track Severe Weather on mobile